Terminal Aerodrome Forecast
Issued by NWS

Home | Current Version | Previous Version | Text Only | Print | Product List | Glossary On
Versions: 1 2 3 4 5 6 7 8 9 10 11 12 13 14
000
FTUS41 KILN 250544
TAFLCK
TAF
KLCK 250544Z 2506/2606 13007KT P6SM BKN019 OVC024
     FM251200 17006KT P6SM VCSH OVC015
     FM251400 20006KT P6SM VCSH OVC025
     FM252000 26008KT P6SM VCSH OVC025
     FM260000 29009KT P6SM OVC013=

USA.gov is the U.S. government's official web portal to all federal, state and local government web resources and services.